sensor_id;sensor_type;location;lat;lon;timestamp;P1;durP1;ratioP1;P2;durP2;ratioP2
17566;SDS011;8901;52.088;5.084;2023-04-23T00:00:15;41.43;;;37.37;;
17566;SDS011;8901;52.088;5.084;2023-04-23T00:02:49;39.33;;;35.10;;
17566;SDS011;8901;52.088;5.084;2023-04-23T00:05:26;41.80;;;37.77;;
17566;SDS011;8901;52.088;5.084;2023-04-23T00:07:53;40.00;;;36.10;;
17566;SDS011;8901;52.088;5.084;2023-04-23T00:10:25;44.53;;;39.97;;
17566;SDS011;8901;52.088;5.084;2023-04-23T00:12:55;39.47;;;35.70;;
17566;SDS011;8901;52.088;5.084;2023-04-23T00:15:22;39.43;;;35.60;;
17566;SDS011;8901;52.088;5.084;2023-04-23T00:17:54;39.80;;;35.80;;
17566;SDS011;8901;52.088;5.084;2023-04-23T00:20:22;41.50;;;37.33;;
17566;SDS011;8901;52.088;5.084;2023-04-23T00:22:49;39.90;;;36.03;;
17566;SDS011;8901;52.088;5.084;2023-04-23T00:25:16;40.63;;;36.63;;
17566;SDS011;8901;52.088;5.084;2023-04-23T00:27:52;38.40;;;34.73;;
17566;SDS011;8901;52.088;5.084;2023-04-23T00:30:23;40.10;;;36.20;;
17566;SDS011;8901;52.088;5.084;2023-04-23T00:32:50;40.00;;;36.20;;
17566;SDS011;8901;52.088;5.084;2023-04-23T00:35:21;38.53;;;34.63;;
17566;SDS011;8901;52.088;5.084;2023-04-23T00:37:51;41.20;;;37.10;;
17566;SDS011;8901;52.088;5.084;2023-04-23T00:40:19;38.77;;;35.10;;
17566;SDS011;8901;52.088;5.084;2023-04-23T00:42:50;39.20;;;35.40;;
17566;SDS011;8901;52.088;5.084;2023-04-23T00:45:18;39.73;;;35.83;;
17566;SDS011;8901;52.088;5.084;2023-04-23T00:47:45;37.03;;;33.47;;
17566;SDS011;8901;52.088;5.084;2023-04-23T00:50:15;36.13;;;32.63;;
17566;SDS011;8901;52.088;5.084;2023-04-23T00:52:47;39.70;;;35.97;;
17566;SDS011;8901;52.088;5.084;2023-04-23T00:55:16;40.10;;;36.40;;
17566;SDS011;8901;52.088;5.084;2023-04-23T00:57:45;40.30;;;36.37;;
17566;SDS011;8901;52.088;5.084;2023-04-23T01:00:15;38.10;;;34.40;;
17566;SDS011;8901;52.088;5.084;2023-04-23T01:02:46;44.27;;;39.93;;
17566;SDS011;8901;52.088;5.084;2023-04-23T01:05:14;41.20;;;37.23;;
17566;SDS011;8901;52.088;5.084;2023-04-23T01:07:42;38.27;;;34.63;;
17566;SDS011;8901;52.088;5.084;2023-04-23T01:10:29;39.43;;;35.70;;
17566;SDS011;8901;52.088;5.084;2023-04-23T01:13:05;39.47;;;35.63;;
17566;SDS011;8901;52.088;5.084;2023-04-23T01:15:36;42.73;;;38.57;;
17566;SDS011;8901;52.088;5.084;2023-04-23T01:18:06;39.10;;;35.10;;
17566;SDS011;8901;52.088;5.084;2023-04-23T01:20:36;42.13;;;38.23;;
17566;SDS011;8901;52.088;5.084;2023-04-23T01:23:08;41.30;;;37.40;;
17566;SDS011;8901;52.088;5.084;2023-04-23T01:25:35;38.37;;;34.60;;
17566;SDS011;8901;52.088;5.084;2023-04-23T01:28:03;40.63;;;36.73;;
17566;SDS011;8901;52.088;5.084;2023-04-23T01:30:38;40.87;;;36.97;;
17566;SDS011;8901;52.088;5.084;2023-04-23T01:33:05;42.43;;;38.33;;
17566;SDS011;8901;52.088;5.084;2023-04-23T01:35:37;36.23;;;32.80;;
17566;SDS011;8901;52.088;5.084;2023-04-23T01:38:04;41.77;;;37.60;;
17566;SDS011;8901;52.088;5.084;2023-04-23T01:40:36;40.63;;;36.70;;
17566;SDS011;8901;52.088;5.084;2023-04-23T01:43:09;38.47;;;34.87;;
17566;SDS011;8901;52.088;5.084;2023-04-23T01:45:40;39.17;;;35.63;;
17566;SDS011;8901;52.088;5.084;2023-04-23T01:48:08;42.20;;;38.30;;
17566;SDS011;8901;52.088;5.084;2023-04-23T01:50:35;37.97;;;34.37;;
17566;SDS011;8901;52.088;5.084;2023-04-23T01:53:04;40.70;;;36.70;;
17566;SDS011;8901;52.088;5.084;2023-04-23T01:55:39;39.63;;;36.03;;
17566;SDS011;8901;52.088;5.084;2023-04-23T01:58:07;41.03;;;37.27;;
17566;SDS011;8901;52.088;5.084;2023-04-23T02:00:36;38.20;;;34.40;;
17566;SDS011;8901;52.088;5.084;2023-04-23T02:03:20;39.60;;;35.90;;
17566;SDS011;8901;52.088;5.084;2023-04-23T02:06:10;37.17;;;33.77;;
17566;SDS011;8901;52.088;5.084;2023-04-23T02:08:49;37.57;;;34.07;;
17566;SDS011;8901;52.088;5.084;2023-04-23T02:11:17;35.13;;;31.83;;
17566;SDS011;8901;52.088;5.084;2023-04-23T02:13:49;37.77;;;33.97;;
17566;SDS011;8901;52.088;5.084;2023-04-23T02:16:17;38.47;;;34.80;;
17566;SDS011;8901;52.088;5.084;2023-04-23T02:22:00;36.77;;;33.47;;
17566;SDS011;8901;52.088;5.084;2023-04-23T02:27:18;39.10;;;35.47;;
17566;SDS011;8901;52.088;5.084;2023-04-23T02:30:09;36.23;;;32.87;;
17566;SDS011;8901;52.088;5.084;2023-04-23T02:32:37;37.63;;;34.20;;
17566;SDS011;8901;52.088;5.084;2023-04-23T02:35:15;34.43;;;31.33;;
17566;SDS011;8901;52.088;5.084;2023-04-23T02:46:56;35.43;;;32.30;;
17566;SDS011;8901;52.088;5.084;2023-04-23T02:49:24;34.13;;;30.77;;
17566;SDS011;8901;52.088;5.084;2023-04-23T02:51:54;32.80;;;29.70;;
17566;SDS011;8901;52.088;5.084;2023-04-23T02:54:23;35.07;;;31.83;;
17566;SDS011;8901;52.088;5.084;2023-04-23T02:56:51;33.90;;;30.90;;
17566;SDS011;8901;52.088;5.084;2023-04-23T02:59:18;33.47;;;30.47;;
17566;SDS011;8901;52.088;5.084;2023-04-23T03:01:46;31.43;;;28.63;;
17566;SDS011;8901;52.088;5.084;2023-04-23T03:04:16;32.13;;;29.23;;
17566;SDS011;8901;52.088;5.084;2023-04-23T03:06:44;31.03;;;28.17;;
17566;SDS011;8901;52.088;5.084;2023-04-23T03:09:12;29.20;;;26.50;;
17566;SDS011;8901;52.088;5.084;2023-04-23T03:11:39;31.37;;;28.57;;
17566;SDS011;8901;52.088;5.084;2023-04-23T03:14:06;31.03;;;28.23;;
17566;SDS011;8901;52.088;5.084;2023-04-23T03:16:33;32.47;;;29.57;;
17566;SDS011;8901;52.088;5.084;2023-04-23T03:19:03;31.17;;;28.27;;
17566;SDS011;8901;52.088;5.084;2023-04-23T03:21:31;31.73;;;28.87;;
17566;SDS011;8901;52.088;5.084;2023-04-23T03:23:59;33.13;;;30.23;;
17566;SDS011;8901;52.088;5.084;2023-04-23T03:26:27;28.67;;;25.97;;
17566;SDS011;8901;52.088;5.084;2023-04-23T03:28:54;35.03;;;31.93;;
17566;SDS011;8901;52.088;5.084;2023-04-23T03:31:21;30.07;;;27.37;;
17566;SDS011;8901;52.088;5.084;2023-04-23T03:33:51;31.47;;;28.67;;
17566;SDS011;8901;52.088;5.084;2023-04-23T03:36:18;30.53;;;27.93;;
17566;SDS011;8901;52.088;5.084;2023-04-23T03:38:47;30.40;;;27.80;;
17566;SDS011;8901;52.088;5.084;2023-04-23T03:41:14;30.17;;;27.47;;
17566;SDS011;8901;52.088;5.084;2023-04-23T03:43:41;29.67;;;27.17;;
17566;SDS011;8901;52.088;5.084;2023-04-23T03:46:09;28.60;;;26.07;;
17566;SDS011;8901;52.088;5.084;2023-04-23T03:48:36;28.77;;;26.27;;
17566;SDS011;8901;52.088;5.084;2023-04-23T03:51:03;30.87;;;28.27;;
17566;SDS011;8901;52.088;5.084;2023-04-23T03:53:30;27.83;;;25.53;;
17566;SDS011;8901;52.088;5.084;2023-04-23T03:55:59;29.33;;;26.73;;
17566;SDS011;8901;52.088;5.084;2023-04-23T03:58:26;28.90;;;26.50;;
17566;SDS011;8901;52.088;5.084;2023-04-23T04:00:53;29.57;;;27.07;;
17566;SDS011;8901;52.088;5.084;2023-04-23T04:03:20;27.80;;;25.50;;
17566;SDS011;8901;52.088;5.084;2023-04-23T04:05:47;26.87;;;24.63;;
17566;SDS011;8901;52.088;5.084;2023-04-23T04:08:14;26.73;;;24.50;;
17566;SDS011;8901;52.088;5.084;2023-04-23T04:10:41;27.80;;;25.50;;
17566;SDS011;8901;52.088;5.084;2023-04-23T04:13:10;27.57;;;25.37;;
17566;SDS011;8901;52.088;5.084;2023-04-23T04:15:37;25.87;;;23.77;;
17566;SDS011;8901;52.088;5.084;2023-04-23T04:18:04;25.90;;;23.73;;
17566;SDS011;8901;52.088;5.084;2023-04-23T04:20:31;28.57;;;26.20;;
17566;SDS011;8901;52.088;5.084;2023-04-23T04:22:58;25.30;;;22.93;;
17566;SDS011;8901;52.088;5.084;2023-04-23T04:25:25;26.43;;;24.10;;
17566;SDS011;8901;52.088;5.084;2023-04-23T04:27:53;28.33;;;25.93;;
17566;SDS011;8901;52.088;5.084;2023-04-23T04:30:23;27.73;;;25.43;;
17566;SDS011;8901;52.088;5.084;2023-04-23T04:32:50;26.27;;;24.17;;
17566;SDS011;8901;52.088;5.084;2023-04-23T04:35:18;25.33;;;23.23;;
17566;SDS011;8901;52.088;5.084;2023-04-23T04:37:45;26.90;;;24.63;;
17566;SDS011;8901;52.088;5.084;2023-04-23T04:40:12;28.57;;;26.17;;
17566;SDS011;8901;52.088;5.084;2023-04-23T04:42:39;26.20;;;24.10;;
17566;SDS011;8901;52.088;5.084;2023-04-23T04:45:07;27.63;;;25.33;;
17566;SDS011;8901;52.088;5.084;2023-04-23T04:47:35;26.93;;;24.93;;
17566;SDS011;8901;52.088;5.084;2023-04-23T04:50:03;28.00;;;25.60;;
17566;SDS011;8901;52.088;5.084;2023-04-23T04:52:30;29.10;;;26.60;;
17566;SDS011;8901;52.088;5.084;2023-04-23T04:54:57;24.03;;;22.13;;
17566;SDS011;8901;52.088;5.084;2023-04-23T04:57:24;27.17;;;25.00;;
17566;SDS011;8901;52.088;5.084;2023-04-23T04:59:52;28.13;;;25.83;;
17566;SDS011;8901;52.088;5.084;2023-04-23T05:02:19;27.70;;;25.43;;
17566;SDS011;8901;52.088;5.084;2023-04-23T05:04:48;26.60;;;24.37;;
17566;SDS011;8901;52.088;5.084;2023-04-23T05:07:16;26.40;;;24.40;;
17566;SDS011;8901;52.088;5.084;2023-04-23T05:09:43;24.80;;;22.80;;
17566;SDS011;8901;52.088;5.084;2023-04-23T05:12:10;26.60;;;24.50;;
17566;SDS011;8901;52.088;5.084;2023-04-23T05:14:38;25.97;;;23.77;;
17566;SDS011;8901;52.088;5.084;2023-04-23T05:17:05;23.93;;;22.17;;
17566;SDS011;8901;52.088;5.084;2023-04-23T05:19:32;25.50;;;23.50;;
17566;SDS011;8901;52.088;5.084;2023-04-23T05:22:00;23.20;;;21.13;;
17566;SDS011;8901;52.088;5.084;2023-04-23T05:24:28;25.10;;;23.20;;
17566;SDS011;8901;52.088;5.084;2023-04-23T05:26:55;24.23;;;22.23;;
17566;SDS011;8901;52.088;5.084;2023-04-23T05:29:22;24.77;;;22.53;;
17566;SDS011;8901;52.088;5.084;2023-04-23T05:31:49;22.70;;;20.80;;
17566;SDS011;8901;52.088;5.084;2023-04-23T05:34:16;20.97;;;19.13;;
17566;SDS011;8901;52.088;5.084;2023-04-23T05:36:44;22.23;;;20.33;;
17566;SDS011;8901;52.088;5.084;2023-04-23T05:39:12;23.13;;;21.30;;
17566;SDS011;8901;52.088;5.084;2023-04-23T05:41:39;21.10;;;19.43;;
17566;SDS011;8901;52.088;5.084;2023-04-23T05:44:06;22.07;;;20.33;;
17566;SDS011;8901;52.088;5.084;2023-04-23T05:46:33;21.17;;;19.47;;
17566;SDS011;8901;52.088;5.084;2023-04-23T05:49:01;21.40;;;19.67;;
17566;SDS011;8901;52.088;5.084;2023-04-23T05:51:28;22.30;;;20.60;;
17566;SDS011;8901;52.088;5.084;2023-04-23T05:53:55;22.07;;;20.37;;
17566;SDS011;8901;52.088;5.084;2023-04-23T05:56:24;21.07;;;19.33;;
17566;SDS011;8901;52.088;5.084;2023-04-23T05:58:51;21.83;;;20.00;;
17566;SDS011;8901;52.088;5.084;2023-04-23T06:01:18;20.63;;;18.73;;
17566;SDS011;8901;52.088;5.084;2023-04-23T06:03:45;20.00;;;18.30;;
17566;SDS011;8901;52.088;5.084;2023-04-23T06:06:12;20.30;;;18.60;;
17566;SDS011;8901;52.088;5.084;2023-04-23T06:08:40;21.20;;;19.20;;
17566;SDS011;8901;52.088;5.084;2023-04-23T06:11:07;19.23;;;17.63;;
17566;SDS011;8901;52.088;5.084;2023-04-23T06:13:35;18.87;;;17.37;;
17566;SDS011;8901;52.088;5.084;2023-04-23T06:16:04;18.37;;;16.97;;
17566;SDS011;8901;52.088;5.084;2023-04-23T06:18:31;19.67;;;17.97;;
17566;SDS011;8901;52.088;5.084;2023-04-23T06:20:58;18.73;;;17.23;;
17566;SDS011;8901;52.088;5.084;2023-04-23T06:23:28;19.90;;;18.23;;
17566;SDS011;8901;52.088;5.084;2023-04-23T06:25:55;17.57;;;16.13;;
17566;SDS011;8901;52.088;5.084;2023-04-23T06:28:22;19.67;;;18.07;;
17566;SDS011;8901;52.088;5.084;2023-04-23T06:30:51;18.40;;;16.90;;
17566;SDS011;8901;52.088;5.084;2023-04-23T06:33:18;18.47;;;17.07;;
17566;SDS011;8901;52.088;5.084;2023-04-23T06:35:45;17.27;;;15.80;;
17566;SDS011;8901;52.088;5.084;2023-04-23T06:38:12;17.27;;;15.93;;
17566;SDS011;8901;52.088;5.084;2023-04-23T06:40:39;15.37;;;14.20;;
17566;SDS011;8901;52.088;5.084;2023-04-23T06:43:07;15.53;;;14.27;;
17566;SDS011;8901;52.088;5.084;2023-04-23T06:45:34;14.83;;;13.63;;
17566;SDS011;8901;52.088;5.084;2023-04-23T06:48:02;15.60;;;14.30;;
17566;SDS011;8901;52.088;5.084;2023-04-23T06:50:29;15.83;;;14.60;;
17566;SDS011;8901;52.088;5.084;2023-04-23T06:53:03;15.67;;;14.27;;
17566;SDS011;8901;52.088;5.084;2023-04-23T06:55:30;15.07;;;13.87;;
17566;SDS011;8901;52.088;5.084;2023-04-23T06:57:57;14.77;;;13.60;;
17566;SDS011;8901;52.088;5.084;2023-04-23T07:00:25;15.63;;;14.33;;
17566;SDS011;8901;52.088;5.084;2023-04-23T07:02:52;13.93;;;12.80;;
17566;SDS011;8901;52.088;5.084;2023-04-23T07:05:20;14.23;;;12.83;;
17566;SDS011;8901;52.088;5.084;2023-04-23T07:07:47;13.87;;;12.47;;
17566;SDS011;8901;52.088;5.084;2023-04-23T07:10:19;14.27;;;13.00;;
17566;SDS011;8901;52.088;5.084;2023-04-23T07:12:47;13.73;;;12.47;;
17566;SDS011;8901;52.088;5.084;2023-04-23T07:15:14;12.50;;;11.50;;
17566;SDS011;8901;52.088;5.084;2023-04-23T07:17:41;12.30;;;11.30;;
17566;SDS011;8901;52.088;5.084;2023-04-23T07:20:08;12.90;;;11.67;;
17566;SDS011;8901;52.088;5.084;2023-04-23T07:22:37;14.50;;;13.30;;
17566;SDS011;8901;52.088;5.084;2023-04-23T07:25:04;15.30;;;14.10;;
17566;SDS011;8901;52.088;5.084;2023-04-23T07:27:34;14.40;;;13.30;;
17566;SDS011;8901;52.088;5.084;2023-04-23T07:30:01;14.23;;;13.03;;
17566;SDS011;8901;52.088;5.084;2023-04-23T07:32:29;13.87;;;12.77;;
17566;SDS011;8901;52.088;5.084;2023-04-23T07:34:58;12.90;;;11.47;;
17566;SDS011;8901;52.088;5.084;2023-04-23T07:37:25;12.60;;;11.47;;
17566;SDS011;8901;52.088;5.084;2023-04-23T07:39:54;11.50;;;10.50;;
17566;SDS011;8901;52.088;5.084;2023-04-23T07:42:22;13.10;;;11.90;;
17566;SDS011;8901;52.088;5.084;2023-04-23T07:44:49;11.27;;;10.40;;
17566;SDS011;8901;52.088;5.084;2023-04-23T07:47:16;13.10;;;11.73;;
17566;SDS011;8901;52.088;5.084;2023-04-23T07:49:43;13.20;;;12.10;;
17566;SDS011;8901;52.088;5.084;2023-04-23T07:52:11;12.27;;;11.27;;
17566;SDS011;8901;52.088;5.084;2023-04-23T07:54:39;11.63;;;10.43;;
17566;SDS011;8901;52.088;5.084;2023-04-23T07:57:11;11.27;;;10.17;;
17566;SDS011;8901;52.088;5.084;2023-04-23T07:59:38;9.73;;;8.87;;
17566;SDS011;8901;52.088;5.084;2023-04-23T08:02:05;10.37;;;9.30;;
17566;SDS011;8901;52.088;5.084;2023-04-23T08:04:32;10.37;;;9.17;;
17566;SDS011;8901;52.088;5.084;2023-04-23T08:06:59;11.77;;;9.53;;
17566;SDS011;8901;52.088;5.084;2023-04-23T08:09:26;9.47;;;8.20;;
17566;SDS011;8901;52.088;5.084;2023-04-23T08:11:54;15.07;;;9.17;;
17566;SDS011;8901;52.088;5.084;2023-04-23T08:14:22;12.73;;;7.97;;
17566;SDS011;8901;52.088;5.084;2023-04-23T08:16:50;9.80;;;7.93;;
17566;SDS011;8901;52.088;5.084;2023-04-23T08:19:17;9.23;;;7.30;;
17566;SDS011;8901;52.088;5.084;2023-04-23T08:21:44;14.57;;;7.63;;
17566;SDS011;8901;52.088;5.084;2023-04-23T08:24:11;9.13;;;7.33;;
17566;SDS011;8901;52.088;5.084;2023-04-23T08:26:38;9.60;;;7.77;;
17566;SDS011;8901;52.088;5.084;2023-04-23T08:29:05;9.63;;;7.30;;
17566;SDS011;8901;52.088;5.084;2023-04-23T08:31:34;13.83;;;6.00;;
17566;SDS011;8901;52.088;5.084;2023-04-23T08:34:03;6.53;;;5.93;;
17566;SDS011;8901;52.088;5.084;2023-04-23T08:36:30;9.10;;;7.47;;
17566;SDS011;8901;52.088;5.084;2023-04-23T08:38:57;9.83;;;6.67;;
17566;SDS011;8901;52.088;5.084;2023-04-23T08:41:26;9.73;;;7.23;;
17566;SDS011;8901;52.088;5.084;2023-04-23T08:43:58;8.50;;;6.77;;
17566;SDS011;8901;52.088;5.084;2023-04-23T08:46:30;8.53;;;6.90;;
17566;SDS011;8901;52.088;5.084;2023-04-23T08:48:59;10.87;;;7.60;;
17566;SDS011;8901;52.088;5.084;2023-04-23T08:51:26;9.53;;;7.33;;
17566;SDS011;8901;52.088;5.084;2023-04-23T08:53:57;9.07;;;7.33;;
17566;SDS011;8901;52.088;5.084;2023-04-23T08:56:25;8.90;;;7.37;;
17566;SDS011;8901;52.088;5.084;2023-04-23T08:58:56;9.10;;;7.70;;
17566;SDS011;8901;52.088;5.084;2023-04-23T09:01:24;10.70;;;7.63;;
17566;SDS011;8901;52.088;5.084;2023-04-23T09:03:51;10.13;;;8.30;;
17566;SDS011;8901;52.088;5.084;2023-04-23T09:06:20;9.33;;;8.00;;
17566;SDS011;8901;52.088;5.084;2023-04-23T09:08:47;10.57;;;9.47;;
17566;SDS011;8901;52.088;5.084;2023-04-23T09:11:14;10.87;;;8.93;;
17566;SDS011;8901;52.088;5.084;2023-04-23T09:13:42;11.53;;;10.13;;
17566;SDS011;8901;52.088;5.084;2023-04-23T09:16:10;11.63;;;10.33;;
17566;SDS011;8901;52.088;5.084;2023-04-23T09:18:37;12.00;;;10.90;;
17566;SDS011;8901;52.088;5.084;2023-04-23T09:21:04;11.83;;;10.73;;
17566;SDS011;8901;52.088;5.084;2023-04-23T09:23:33;12.80;;;11.43;;
17566;SDS011;8901;52.088;5.084;2023-04-23T09:26:05;13.53;;;11.80;;
17566;SDS011;8901;52.088;5.084;2023-04-23T09:28:36;13.73;;;12.13;;
17566;SDS011;8901;52.088;5.084;2023-04-23T09:31:03;12.87;;;11.60;;
17566;SDS011;8901;52.088;5.084;2023-04-23T09:33:34;13.37;;;11.97;;
17566;SDS011;8901;52.088;5.084;2023-04-23T09:36:07;14.83;;;6.87;;
17566;SDS011;8901;52.088;5.084;2023-04-23T09:38:40;10.43;;;7.77;;
17566;SDS011;8901;52.088;5.084;2023-04-23T09:41:22;13.80;;;7.30;;
17566;SDS011;8901;52.088;5.084;2023-04-23T09:43:51;9.70;;;7.60;;
17566;SDS011;8901;52.088;5.084;2023-04-23T09:46:30;10.13;;;7.43;;
17566;SDS011;8901;52.088;5.084;2023-04-23T09:48:59;9.40;;;8.50;;
17566;SDS011;8901;52.088;5.084;2023-04-23T09:51:28;13.43;;;12.23;;
17566;SDS011;8901;52.088;5.084;2023-04-23T09:53:56;11.13;;;10.07;;
17566;SDS011;8901;52.088;5.084;2023-04-23T09:56:48;11.30;;;10.27;;
17566;SDS011;8901;52.088;5.084;2023-04-23T09:59:20;13.13;;;12.17;;
17566;SDS011;8901;52.088;5.084;2023-04-23T10:01:47;14.10;;;12.70;;
17566;SDS011;8901;52.088;5.084;2023-04-23T10:04:16;12.47;;;11.10;;
17566;SDS011;8901;52.088;5.084;2023-04-23T10:06:45;15.13;;;13.63;;
17566;SDS011;8901;52.088;5.084;2023-04-23T10:09:12;16.37;;;13.77;;
17566;SDS011;8901;52.088;5.084;2023-04-23T10:11:55;16.40;;;15.10;;
17566;SDS011;8901;52.088;5.084;2023-04-23T10:14:38;13.80;;;12.50;;
17566;SDS011;8901;52.088;5.084;2023-04-23T10:17:12;13.83;;;12.60;;
17566;SDS011;8901;52.088;5.084;2023-04-23T10:19:43;14.60;;;13.27;;
17566;SDS011;8901;52.088;5.084;2023-04-23T10:22:10;16.07;;;14.60;;
17566;SDS011;8901;52.088;5.084;2023-04-23T10:24:38;15.13;;;13.83;;
17566;SDS011;8901;52.088;5.084;2023-04-23T10:27:09;15.50;;;14.40;;
17566;SDS011;8901;52.088;5.084;2023-04-23T10:29:41;16.27;;;15.07;;
17566;SDS011;8901;52.088;5.084;2023-04-23T10:32:09;17.40;;;15.90;;
17566;SDS011;8901;52.088;5.084;2023-04-23T10:34:38;17.03;;;15.73;;
17566;SDS011;8901;52.088;5.084;2023-04-23T10:37:07;22.20;;;20.60;;
17566;SDS011;8901;52.088;5.084;2023-04-23T10:39:37;19.23;;;17.50;;
17566;SDS011;8901;52.088;5.084;2023-04-23T10:42:04;18.20;;;16.93;;
17566;SDS011;8901;52.088;5.084;2023-04-23T10:44:32;18.37;;;16.87;;
17566;SDS011;8901;52.088;5.084;2023-04-23T10:47:03;16.03;;;14.73;;
17566;SDS011;8901;52.088;5.084;2023-04-23T10:49:31;18.17;;;16.57;;
17566;SDS011;8901;52.088;5.084;2023-04-23T10:52:00;18.70;;;17.13;;
17566;SDS011;8901;52.088;5.084;2023-04-23T10:54:30;16.67;;;15.57;;
17566;SDS011;8901;52.088;5.084;2023-04-23T10:57:01;16.90;;;15.47;;
17566;SDS011;8901;52.088;5.084;2023-04-23T10:59:29;19.93;;;18.33;;
17566;SDS011;8901;52.088;5.084;2023-04-23T11:02:00;18.63;;;17.13;;
17566;SDS011;8901;52.088;5.084;2023-04-23T11:04:33;19.67;;;18.30;;
17566;SDS011;8901;52.088;5.084;2023-04-23T11:07:04;19.67;;;18.37;;
17566;SDS011;8901;52.088;5.084;2023-04-23T11:09:39;20.73;;;19.23;;
17566;SDS011;8901;52.088;5.084;2023-04-23T11:12:09;19.17;;;17.87;;
17566;SDS011;8901;52.088;5.084;2023-04-23T11:14:41;20.53;;;19.07;;
17566;SDS011;8901;52.088;5.084;2023-04-23T11:17:10;18.10;;;16.73;;
17566;SDS011;8901;52.088;5.084;2023-04-23T11:19:39;19.47;;;17.97;;
17566;SDS011;8901;52.088;5.084;2023-04-23T11:22:11;18.40;;;17.00;;
17566;SDS011;8901;52.088;5.084;2023-04-23T11:24:39;19.30;;;17.50;;
17566;SDS011;8901;52.088;5.084;2023-04-23T11:27:07;19.23;;;17.90;;
17566;SDS011;8901;52.088;5.084;2023-04-23T11:29:35;21.43;;;19.77;;
17566;SDS011;8901;52.088;5.084;2023-04-23T11:32:02;21.20;;;19.80;;
17566;SDS011;8901;52.088;5.084;2023-04-23T11:34:34;20.30;;;18.80;;
17566;SDS011;8901;52.088;5.084;2023-04-23T11:37:03;20.23;;;18.83;;
17566;SDS011;8901;52.088;5.084;2023-04-23T11:39:30;19.40;;;18.10;;
17566;SDS011;8901;52.088;5.084;2023-04-23T11:41:58;19.83;;;18.43;;
17566;SDS011;8901;52.088;5.084;2023-04-23T11:44:27;18.50;;;17.00;;
17566;SDS011;8901;52.088;5.084;2023-04-23T11:46:54;18.37;;;17.03;;
17566;SDS011;8901;52.088;5.084;2023-04-23T11:49:24;17.27;;;15.80;;
17566;SDS011;8901;52.088;5.084;2023-04-23T11:51:52;18.57;;;17.03;;
17566;SDS011;8901;52.088;5.084;2023-04-23T11:54:24;17.00;;;15.70;;
17566;SDS011;8901;52.088;5.084;2023-04-23T11:56:52;18.23;;;16.60;;
17566;SDS011;8901;52.088;5.084;2023-04-23T11:59:19;17.47;;;16.17;;
17566;SDS011;8901;52.088;5.084;2023-04-23T12:01:47;17.90;;;16.50;;
17566;SDS011;8901;52.088;5.084;2023-04-23T12:04:17;16.50;;;15.30;;
17566;SDS011;8901;52.088;5.084;2023-04-23T12:06:45;18.33;;;16.67;;
17566;SDS011;8901;52.088;5.084;2023-04-23T12:09:13;17.27;;;15.97;;
17566;SDS011;8901;52.088;5.084;2023-04-23T12:11:42;16.63;;;15.33;;
17566;SDS011;8901;52.088;5.084;2023-04-23T12:14:10;17.00;;;15.70;;
17566;SDS011;8901;52.088;5.084;2023-04-23T12:16:39;18.00;;;16.37;;
17566;SDS011;8901;52.088;5.084;2023-04-23T12:19:07;16.30;;;14.90;;
17566;SDS011;8901;52.088;5.084;2023-04-23T12:30:18;16.93;;;15.27;;
17566;SDS011;8901;52.088;5.084;2023-04-23T12:32:59;17.23;;;15.80;;
17566;SDS011;8901;52.088;5.084;2023-04-23T12:35:44;16.80;;;15.50;;
17566;SDS011;8901;52.088;5.084;2023-04-23T12:38:28;17.00;;;15.70;;
17566;SDS011;8901;52.088;5.084;2023-04-23T12:40:57;16.53;;;15.23;;
17566;SDS011;8901;52.088;5.084;2023-04-23T12:43:24;16.07;;;15.00;;
17566;SDS011;8901;52.088;5.084;2023-04-23T12:45:55;17.50;;;16.10;;
17566;SDS011;8901;52.088;5.084;2023-04-23T12:48:25;15.87;;;14.43;;
17566;SDS011;8901;52.088;5.084;2023-04-23T12:50:54;16.70;;;15.33;;
17566;SDS011;8901;52.088;5.084;2023-04-23T12:53:21;15.50;;;14.40;;
17566;SDS011;8901;52.088;5.084;2023-04-23T12:56:01;16.40;;;14.93;;
17566;SDS011;8901;52.088;5.084;2023-04-23T12:58:30;16.00;;;14.60;;
17566;SDS011;8901;52.088;5.084;2023-04-23T13:01:15;16.10;;;14.97;;
17566;SDS011;8901;52.088;5.084;2023-04-23T13:03:43;16.10;;;14.90;;
17566;SDS011;8901;52.088;5.084;2023-04-23T13:06:27;16.77;;;15.37;;
17566;SDS011;8901;52.088;5.084;2023-04-23T13:08:55;16.47;;;15.17;;
17566;SDS011;8901;52.088;5.084;2023-04-23T13:11:36;16.73;;;15.43;;
17566;SDS011;8901;52.088;5.084;2023-04-23T13:17:06;14.60;;;13.60;;
17566;SDS011;8901;52.088;5.084;2023-04-23T13:19:35;16.37;;;15.27;;
17566;SDS011;8901;52.088;5.084;2023-04-23T13:24:50;15.53;;;14.33;;
17566;SDS011;8901;52.088;5.084;2023-04-23T13:27:27;15.20;;;14.00;;
17566;SDS011;8901;52.088;5.084;2023-04-23T13:29:57;13.50;;;12.30;;
17566;SDS011;8901;52.088;5.084;2023-04-23T13:32:39;12.53;;;11.50;;
17566;SDS011;8901;52.088;5.084;2023-04-23T13:35:08;11.70;;;10.63;;
17566;SDS011;8901;52.088;5.084;2023-04-23T13:40:19;9.77;;;9.00;;
17566;SDS011;8901;52.088;5.084;2023-04-23T13:42:56;11.00;;;10.10;;
17566;SDS011;8901;52.088;5.084;2023-04-23T13:45:24;11.23;;;10.33;;
17566;SDS011;8901;52.088;5.084;2023-04-23T13:47:59;11.60;;;10.50;;
17566;SDS011;8901;52.088;5.084;2023-04-23T13:50:35;11.70;;;10.80;;
17566;SDS011;8901;52.088;5.084;2023-04-23T13:53:03;10.57;;;9.80;;
17566;SDS011;8901;52.088;5.084;2023-04-23T13:55:32;10.87;;;9.97;;
17566;SDS011;8901;52.088;5.084;2023-04-23T13:58:00;11.40;;;10.20;;
17566;SDS011;8901;52.088;5.084;2023-04-23T14:00:27;10.80;;;9.80;;
17566;SDS011;8901;52.088;5.084;2023-04-23T14:02:55;10.77;;;9.80;;
17566;SDS011;8901;52.088;5.084;2023-04-23T14:05:25;11.30;;;9.90;;
17566;SDS011;8901;52.088;5.084;2023-04-23T14:07:54;10.80;;;9.87;;
17566;SDS011;8901;52.088;5.084;2023-04-23T14:10:21;10.90;;;9.90;;
17566;SDS011;8901;52.088;5.084;2023-04-23T14:12:49;10.33;;;9.43;;
17566;SDS011;8901;52.088;5.084;2023-04-23T14:15:17;10.77;;;9.83;;
17566;SDS011;8901;52.088;5.084;2023-04-23T14:17:46;11.60;;;10.60;;
17566;SDS011;8901;52.088;5.084;2023-04-23T14:20:14;11.17;;;10.23;;
17566;SDS011;8901;52.088;5.084;2023-04-23T14:22:46;11.87;;;10.87;;
17566;SDS011;8901;52.088;5.084;2023-04-23T14:25:14;12.63;;;11.43;;
17566;SDS011;8901;52.088;5.084;2023-04-23T14:27:50;12.50;;;11.40;;
17566;SDS011;8901;52.088;5.084;2023-04-23T14:30:18;11.43;;;10.60;;
17566;SDS011;8901;52.088;5.084;2023-04-23T14:32:45;10.30;;;9.50;;
17566;SDS011;8901;52.088;5.084;2023-04-23T14:35:12;11.10;;;9.53;;
17566;SDS011;8901;52.088;5.084;2023-04-23T14:37:40;10.50;;;9.70;;
17566;SDS011;8901;52.088;5.084;2023-04-23T14:40:11;10.27;;;9.27;;
17566;SDS011;8901;52.088;5.084;2023-04-23T14:42:43;9.93;;;9.03;;
17566;SDS011;8901;52.088;5.084;2023-04-23T14:45:10;9.93;;;9.13;;
17566;SDS011;8901;52.088;5.084;2023-04-23T14:47:39;10.67;;;9.60;;
17566;SDS011;8901;52.088;5.084;2023-04-23T14:50:11;8.63;;;7.80;;
17566;SDS011;8901;52.088;5.084;2023-04-23T14:52:38;8.03;;;7.43;;
17566;SDS011;8901;52.088;5.084;2023-04-23T14:55:08;11.57;;;8.40;;
17566;SDS011;8901;52.088;5.084;2023-04-23T14:57:36;8.73;;;7.90;;
17566;SDS011;8901;52.088;5.084;2023-04-23T15:00:04;8.00;;;6.30;;
17566;SDS011;8901;52.088;5.084;2023-04-23T15:02:32;8.03;;;7.20;;
17566;SDS011;8901;52.088;5.084;2023-04-23T15:04:59;8.77;;;5.80;;
17566;SDS011;8901;52.088;5.084;2023-04-23T15:07:27;7.07;;;5.47;;
17566;SDS011;8901;52.088;5.084;2023-04-23T15:09:55;7.40;;;4.37;;
17566;SDS011;8901;52.088;5.084;2023-04-23T15:12:40;7.20;;;4.70;;
17566;SDS011;8901;52.088;5.084;2023-04-23T15:15:13;13.93;;;4.50;;
17566;SDS011;8901;52.088;5.084;2023-04-23T15:17:40;5.03;;;4.30;;
17566;SDS011;8901;52.088;5.084;2023-04-23T15:20:07;4.90;;;4.40;;
17566;SDS011;8901;52.088;5.084;2023-04-23T15:22:35;4.47;;;3.90;;